Time;durP1;ratioP1;P1;durP2;ratioP2;P2;SDS_P1;SDS_P2;PMS_P1;PMS_P2;Temp;Humidity;BMP_temperature;BMP_pressure;BME280_temperature;BME280_humidity;BME280_pressure;Samples;Min_cycle;Max_cycle;Signal;HPM_P1;HPM_P2
2021/05/10 00:00:37;;;;;;;1.70;1.10;;;17.20;63.00;;;;;;5060853;28;20104;-73
2021/05/10 00:03:04;;;;;;;1.55;1.02;;;17.20;62.90;;;;;;5055565;28;20007;-74
2021/05/10 00:05:30;;;;;;;1.42;1.00;;;17.20;62.50;;;;;;5054244;28;20017;-74
2021/05/10 00:07:55;;;;;;;2.35;1.50;;;17.20;62.40;;;;;;5054782;28;20063;-74
2021/05/10 00:10:21;;;;;;;1.73;1.20;;;17.30;62.00;;;;;;5054716;28;20080;-73
2021/05/10 00:12:47;;;;;;;2.13;1.27;;;17.30;62.00;;;;;;5054119;28;20033;-73
2021/05/10 00:15:14;;;;;;;1.27;1.00;;;17.30;61.70;;;;;;5054012;28;20044;-74
2021/05/10 00:17:39;;;;;;;2.55;1.42;;;17.30;61.90;;;;;;5054691;28;20013;-73
2021/05/10 00:20:06;;;;;;;3.72;1.13;;;17.30;61.60;;;;;;5056380;28;20040;-73
2021/05/10 00:22:31;;;;;;;1.90;1.30;;;17.30;61.80;;;;;;5053614;28;20040;-74
2021/05/10 00:24:57;;;;;;;4.18;1.30;;;17.20;61.80;;;;;;5073666;28;20100;-73
2021/05/10 00:27:23;;;;;;;3.20;1.27;;;17.20;61.90;;;;;;5054576;28;20018;-73
2021/05/10 00:29:49;;;;;;;2.92;1.20;;;17.10;62.20;;;;;;5054292;28;20017;-75
2021/05/10 00:32:14;;;;;;;1.75;0.95;;;17.00;62.60;;;;;;5057282;28;20037;-75
2021/05/10 00:34:40;;;;;;;3.42;1.40;;;17.00;62.90;;;;;;5052887;28;20053;-75
2021/05/10 00:37:05;;;;;;;2.65;1.25;;;16.90;63.30;;;;;;5051848;28;20052;-75
2021/05/10 00:39:31;;;;;;;2.88;1.35;;;16.90;63.80;;;;;;5050879;28;20018;-77
2021/05/10 00:41:57;;;;;;;1.20;1.10;;;16.80;64.30;;;;;;5030262;28;20013;-76
2021/05/10 00:44:23;;;;;;;2.33;1.30;;;16.70;64.20;;;;;;5027966;28;20017;-77
2021/05/10 00:46:50;;;;;;;1.85;1.10;;;16.80;64.30;;;;;;5027031;28;20017;-77
2021/05/10 00:49:15;;;;;;;2.67;1.05;;;16.70;64.40;;;;;;5030873;28;20013;-75
2021/05/10 00:51:41;;;;;;;2.63;1.20;;;16.70;64.50;;;;;;5030336;28;20085;-75
2021/05/10 00:54:07;;;;;;;2.03;1.40;;;16.70;64.60;;;;;;5014004;28;20017;-76
2021/05/10 00:56:32;;;;;;;2.20;1.33;;;16.70;64.40;;;;;;5047277;28;20012;-75
2021/05/10 00:58:58;;;;;;;2.00;1.27;;;16.80;64.20;;;;;;5012297;28;20175;-77
2021/05/10 01:01:23;;;;;;;2.28;1.48;;;16.80;63.90;;;;;;5025896;28;20020;-76
2021/05/10 01:03:51;;;;;;;4.32;1.30;;;16.90;63.60;;;;;;5025683;28;20017;-77
2021/05/10 01:06:17;;;;;;;2.33;1.30;;;16.90;63.60;;;;;;5009466;28;20127;-76
2021/05/10 01:08:42;;;;;;;3.30;1.52;;;16.90;63.50;;;;;;5009169;28;20026;-76
2021/05/10 01:11:08;;;;;;;4.18;1.30;;;17.00;63.40;;;;;;5011695;28;20013;-76
2021/05/10 01:13:34;;;;;;;1.50;1.02;;;17.00;63.20;;;;;;5029905;28;20029;-77
2021/05/10 01:15:59;;;;;;;2.17;1.27;;;17.10;63.00;;;;;;5028256;28;20016;-76
2021/05/10 01:18:25;;;;;;;3.30;1.30;;;17.10;63.20;;;;;;5029195;28;20016;-77
2021/05/10 01:20:50;;;;;;;2.10;1.20;;;17.00;63.70;;;;;;5030089;28;20013;-76
2021/05/10 01:23:16;;;;;;;3.17;1.60;;;16.90;64.00;;;;;;5030390;28;20006;-76
2021/05/10 01:25:42;;;;;;;3.30;1.30;;;16.90;64.40;;;;;;5029804;28;20041;-76
2021/05/10 01:28:08;;;;;;;1.83;1.10;;;16.80;64.70;;;;;;5030177;28;20032;-76
2021/05/10 01:30:39;;;;;;;1.58;1.10;;;16.70;65.20;;;;;;5032460;28;20012;-76
2021/05/10 01:33:06;;;;;;;2.58;1.40;;;16.60;65.70;;;;;;5013580;28;20112;-77
2021/05/10 01:35:34;;;;;;;2.75;1.50;;;16.60;65.60;;;;;;5046627;28;20029;-75
2021/05/10 01:38:00;;;;;;;2.30;1.60;;;16.50;65.80;;;;;;5030519;28;20206;-75
2021/05/10 01:40:26;;;;;;;3.90;1.48;;;16.50;66.10;;;;;;5036049;28;20012;-77
2021/05/10 01:42:52;;;;;;;3.05;1.88;;;16.40;66.40;;;;;;5050120;28;20635;-76
2021/05/10 01:45:17;;;;;;;4.18;1.50;;;16.40;66.60;;;;;;5046424;28;20261;-76
2021/05/10 01:47:43;;;;;;;2.45;1.48;;;16.40;67.00;;;;;;5029687;28;20013;-77
2021/05/10 01:50:17;;;;;;;2.65;1.27;;;16.30;67.20;;;;;;5048805;28;20147;-76
2021/05/10 01:52:42;;;;;;;1.98;1.40;;;16.20;67.90;;;;;;5030781;28;20348;-76
2021/05/10 01:55:08;;;;;;;2.72;1.40;;;16.10;68.20;;;;;;5029828;28;20025;-76
2021/05/10 01:57:34;;;;;;;2.85;1.60;;;16.00;68.30;;;;;;5046360;28;20028;-76
2021/05/10 02:00:00;;;;;;;4.00;1.77;;;16.00;68.50;;;;;;5029113;28;20013;-77
2021/05/10 02:02:26;;;;;;;3.03;1.55;;;16.00;68.80;;;;;;5012188;28;20017;-77
2021/05/10 02:05:19;;;;;;;2.65;1.52;;;15.90;69.10;;;;;;5029103;28;20013;-76
2021/05/10 02:07:49;;;;;;;5.25;1.65;;;15.80;69.50;;;;;;5027259;28;20014;-76
2021/05/10 02:10:31;;;;;;;3.28;1.70;;;15.70;69.80;;;;;;5032688;28;20017;-76
2021/05/10 02:12:59;;;;;;;2.55;1.27;;;15.70;70.20;;;;;;5050878;28;20012;-75
2021/05/10 02:15:30;;;;;;;2.65;1.70;;;15.60;70.40;;;;;;5032798;28;20021;-76
2021/05/10 02:17:56;;;;;;;2.97;1.50;;;15.60;71.00;;;;;;5032738;28;20008;-76
2021/05/10 02:20:22;;;;;;;2.90;1.35;;;15.50;71.40;;;;;;5028652;28;20083;-77
2021/05/10 02:22:51;;;;;;;3.72;1.30;;;15.40;71.70;;;;;;5045981;28;20013;-76
2021/05/10 02:25:22;;;;;;;3.33;1.60;;;15.30;71.90;;;;;;5048317;28;20009;-76
2021/05/10 02:27:47;;;;;;;4.15;1.73;;;15.30;72.20;;;;;;5015970;28;20089;-76
2021/05/10 02:30:14;;;;;;;2.88;1.75;;;15.30;72.30;;;;;;5044780;28;20048;-76
2021/05/10 02:32:40;;;;;;;2.95;1.73;;;15.30;72.40;;;;;;5028225;28;20076;-76
2021/05/10 02:35:06;;;;;;;4.03;1.88;;;15.30;72.40;;;;;;5048094;28;20033;-77
2021/05/10 02:37:31;;;;;;;2.90;1.45;;;15.30;72.30;;;;;;5047568;28;20092;-77
2021/05/10 02:39:57;;;;;;;3.95;1.70;;;15.30;72.30;;;;;;5038462;28;20016;-75
2021/05/10 02:42:23;;;;;;;4.63;1.60;;;15.30;72.30;;;;;;5054963;28;20043;-74
2021/05/10 02:44:48;;;;;;;3.65;1.85;;;15.40;72.10;;;;;;5055357;28;20028;-75
2021/05/10 02:47:14;;;;;;;3.90;1.95;;;15.40;72.00;;;;;;5019135;28;20020;-75
2021/05/10 02:49:39;;;;;;;5.15;2.33;;;15.50;71.90;;;;;;5044520;28;20669;-74
2021/05/10 02:52:05;;;;;;;5.07;1.77;;;15.50;71.70;;;;;;5055274;28;20024;-75
2021/05/10 02:54:31;;;;;;;3.53;1.75;;;15.50;71.50;;;;;;5022116;28;20245;-74
2021/05/10 02:56:56;;;;;;;2.65;1.60;;;15.60;71.50;;;;;;5035215;28;20037;-74
2021/05/10 02:59:22;;;;;;;7.97;2.08;;;15.60;71.30;;;;;;5029985;28;20029;-76
2021/05/10 03:01:48;;;;;;;4.07;1.80;;;15.60;71.20;;;;;;5010544;28;20001;-76
2021/05/10 03:04:13;;;;;;;4.78;1.60;;;15.60;71.30;;;;;;5049563;28;20049;-76
2021/05/10 03:06:39;;;;;;;3.38;1.67;;;15.60;71.40;;;;;;5017240;28;20039;-76
2021/05/10 03:09:05;;;;;;;4.15;2.25;;;15.60;71.50;;;;;;5059458;28;20328;-77
2021/05/10 03:11:30;;;;;;;4.20;2.05;;;15.50;71.50;;;;;;5033099;28;20052;-77
2021/05/10 03:13:56;;;;;;;4.75;1.98;;;15.50;72.30;;;;;;5043893;28;20079;-77
2021/05/10 03:16:21;;;;;;;4.32;2.15;;;15.50;71.60;;;;;;5026032;28;20013;-77
2021/05/10 03:18:47;;;;;;;4.72;2.08;;;15.50;71.80;;;;;;5009522;28;20013;-76
2021/05/10 03:21:13;;;;;;;5.13;1.98;;;15.50;71.90;;;;;;5009293;28;20009;-76
2021/05/10 03:23:38;;;;;;;4.45;2.13;;;15.50;71.90;;;;;;5026250;28;20298;-76
2021/05/10 03:26:04;;;;;;;4.72;1.98;;;15.50;71.90;;;;;;5025763;28;20021;-78
2021/05/10 03:28:30;;;;;;;4.15;1.88;;;15.50;71.90;;;;;;5012830;28;20013;-78
2021/05/10 03:30:55;;;;;;;3.53;2.00;;;15.60;72.00;;;;;;5029491;28;20249;-76
2021/05/10 03:33:21;;;;;;;3.78;1.98;;;15.60;71.90;;;;;;5028708;28;20025;-76
2021/05/10 03:35:47;;;;;;;3.40;2.10;;;15.60;72.00;;;;;;5029560;28;20012;-77
2021/05/10 03:38:12;;;;;;;3.75;2.15;;;15.60;72.00;;;;;;5009274;28;20041;-76
2021/05/10 03:40:38;;;;;;;5.25;2.10;;;15.60;72.00;;;;;;5042332;28;20009;-76
2021/05/10 03:43:03;;;;;;;2.65;1.70;;;15.60;72.10;;;;;;5025724;28;20005;-76
2021/05/10 03:45:29;;;;;;;3.00;1.60;;;15.60;72.30;;;;;;5028279;28;20064;-78
2021/05/10 03:47:55;;;;;;;3.20;1.80;;;15.60;72.40;;;;;;5009341;28;20016;-76
2021/05/10 03:50:21;;;;;;;3.83;1.98;;;15.60;72.60;;;;;;5009817;28;20017;-77
2021/05/10 03:52:48;;;;;;;5.10;2.35;;;15.60;72.60;;;;;;5026093;28;20014;-76
2021/05/10 03:55:15;;;;;;;3.20;1.92;;;15.60;72.60;;;;;;5009441;28;20021;-76
2021/05/10 03:57:41;;;;;;;5.45;2.08;;;15.60;72.90;;;;;;5045113;28;20310;-76
2021/05/10 04:00:08;;;;;;;3.45;2.10;;;15.50;72.90;;;;;;5044900;28;20024;-77
2021/05/10 04:02:34;;;;;;;3.17;1.80;;;15.60;73.20;;;;;;5045541;28;20009;-76
2021/05/10 04:07:38;;;;;;;6.18;2.40;;;15.50;73.20;;;;;;5045094;28;20017;-77
2021/05/10 04:10:57;;;;;;;3.60;1.92;;;15.60;73.20;;;;;;5032474;28;20021;-77
2021/05/10 04:15:35;;;;;;;2.92;1.80;;;15.60;73.30;;;;;;5034206;28;20373;-77
2021/05/10 04:18:00;;;;;;;5.45;2.10;;;15.60;73.20;;;;;;5028338;28;20009;-77
2021/05/10 04:20:26;;;;;;;4.60;2.22;;;15.70;73.20;;;;;;5008914;28;20322;-77
2021/05/10 04:22:51;;;;;;;4.53;2.40;;;15.70;73.20;;;;;;5044560;28;20028;-77
2021/05/10 04:25:17;;;;;;;8.75;2.38;;;15.70;73.20;;;;;;5060691;28;20032;-77
2021/05/10 04:27:43;;;;;;;3.35;2.10;;;15.60;73.30;;;;;;5025294;28;20349;-77
2021/05/10 04:30:09;;;;;;;6.25;2.05;;;15.60;73.40;;;;;;5026373;28;20040;-77
2021/05/10 04:32:35;;;;;;;7.78;2.28;;;15.60;73.40;;;;;;5043598;28;20112;-77
2021/05/10 04:35:00;;;;;;;4.35;2.13;;;15.70;73.40;;;;;;5027177;28;20032;-77
2021/05/10 04:37:26;;;;;;;5.32;2.50;;;15.70;73.50;;;;;;5041671;28;20011;-76
2021/05/10 04:39:51;;;;;;;4.80;2.25;;;15.70;73.60;;;;;;5010934;28;20043;-77
2021/05/10 04:42:17;;;;;;;2.65;1.70;;;15.60;73.70;;;;;;5012224;28;20393;-77
2021/05/10 04:44:43;;;;;;;4.65;2.33;;;15.60;73.70;;;;;;5047514;28;20028;-76
2021/05/10 04:47:08;;;;;;;5.10;1.90;;;15.60;73.80;;;;;;5031544;28;20009;-76
2021/05/10 04:49:34;;;;;;;4.15;2.10;;;15.60;74.10;;;;;;5049063;28;20091;-77
2021/05/10 04:51:59;;;;;;;4.00;1.90;;;15.70;74.10;;;;;;5028888;28;20077;-77
2021/05/10 04:54:25;;;;;;;3.20;1.88;;;15.70;74.10;;;;;;5045582;28;20170;-77
2021/05/10 04:56:51;;;;;;;3.97;2.10;;;15.70;74.00;;;;;;5049929;28;20023;-77
2021/05/10 04:59:17;;;;;;;4.10;1.73;;;15.80;73.80;;;;;;5038484;28;20009;-77
2021/05/10 05:01:43;;;;;;;7.03;3.03;;;15.90;73.60;;;;;;5053399;28;20036;-77
2021/05/10 05:04:09;;;;;;;3.85;1.90;;;15.90;73.40;;;;;;5053133;28;20329;-77
2021/05/10 05:06:34;;;;;;;3.97;1.75;;;16.00;73.30;;;;;;5034308;28;20116;-77
2021/05/10 05:09:00;;;;;;;3.70;1.75;;;16.00;73.00;;;;;;5029017;28;20246;-77
2021/05/10 05:11:26;;;;;;;4.70;2.03;;;16.10;72.80;;;;;;5015334;28;20013;-76
2021/05/10 05:13:51;;;;;;;5.03;1.95;;;16.20;72.50;;;;;;5045593;28;20025;-76
2021/05/10 05:16:17;;;;;;;2.33;1.60;;;16.40;72.30;;;;;;5044716;28;20214;-77
2021/05/10 05:18:43;;;;;;;3.42;1.40;;;16.50;71.70;;;;;;5027627;28;20025;-76
2021/05/10 05:21:08;;;;;;;5.57;2.15;;;16.60;71.50;;;;;;5039179;28;20008;-76
2021/05/10 05:23:34;;;;;;;6.43;1.73;;;16.60;71.00;;;;;;5047913;28;20012;-76
2021/05/10 05:26:01;;;;;;;4.15;1.45;;;16.70;71.00;;;;;;5043535;28;20028;-76
2021/05/10 05:28:27;;;;;;;3.60;2.00;;;16.70;70.90;;;;;;5037910;28;20044;-76
2021/05/10 05:30:54;;;;;;;5.15;2.15;;;16.70;71.10;;;;;;5033506;28;20067;-76
2021/05/10 05:33:20;;;;;;;3.78;1.92;;;16.70;70.70;;;;;;5052492;28;20013;-77
2021/05/10 05:35:45;;;;;;;4.38;2.25;;;16.60;71.00;;;;;;5041540;28;20028;-76
2021/05/10 05:38:12;;;;;;;4.68;2.25;;;16.60;70.80;;;;;;5047444;28;20024;-76
2021/05/10 05:40:38;;;;;;;5.35;2.25;;;16.60;70.80;;;;;;5044358;28;20006;-76
2021/05/10 05:43:04;;;;;;;6.00;2.50;;;16.60;70.70;;;;;;5035270;28;20010;-77
2021/05/10 05:45:30;;;;;;;3.50;2.08;;;16.60;70.30;;;;;;5027819;28;20017;-77
2021/05/10 05:47:55;;;;;;;4.38;2.03;;;16.70;70.20;;;;;;5030790;28;20088;-77
2021/05/10 05:50:21;;;;;;;2.92;1.83;;;16.70;70.30;;;;;;5031308;28;20205;-77
2021/05/10 05:52:47;;;;;;;3.28;1.90;;;16.80;69.90;;;;;;5032608;28;20085;-77
2021/05/10 05:55:13;;;;;;;3.47;1.88;;;16.90;69.60;;;;;;5011789;28;20078;-76
2021/05/10 05:57:38;;;;;;;3.78;1.80;;;16.90;69.10;;;;;;5038310;28;20017;-76
2021/05/10 06:00:05;;;;;;;3.30;1.73;;;17.30;68.70;;;;;;5045035;28;20209;-76
2021/05/10 06:02:30;;;;;;;4.03;1.90;;;18.10;67.00;;;;;;5029223;28;20029;-76
2021/05/10 06:04:56;;;;;;;3.75;1.90;;;18.40;65.10;;;;;;5004707;28;20021;-76
2021/05/10 06:07:21;;;;;;;2.20;1.50;;;18.80;63.60;;;;;;5032072;28;20364;-76
2021/05/10 06:09:47;;;;;;;3.00;1.80;;;19.00;62.60;;;;;;5031446;28;20032;-76
2021/05/10 06:12:13;;;;;;;2.72;1.52;;;19.10;62.00;;;;;;5029219;28;20208;-76
2021/05/10 06:14:39;;;;;;;4.53;1.77;;;19.20;61.50;;;;;;5029738;28;20083;-76
2021/05/10 06:17:04;;;;;;;4.32;1.95;;;19.30;61.00;;;;;;5005219;28;20085;-76
2021/05/10 06:19:31;;;;;;;3.83;1.88;;;19.10;61.00;;;;;;5038131;28;20045;-76
2021/05/10 06:21:57;;;;;;;2.03;1.60;;;18.90;61.50;;;;;;5048638;28;20009;-76
2021/05/10 06:24:22;;;;;;;4.32;1.90;;;19.60;60.60;;;;;;5024660;28;20067;-76
2021/05/10 06:26:48;;;;;;;3.13;1.50;;;19.40;59.90;;;;;;5039303;28;20088;-76
2021/05/10 06:29:14;;;;;;;3.42;1.92;;;19.60;59.60;;;;;;5007912;28;20080;-76
2021/05/10 06:31:39;;;;;;;7.03;2.20;;;19.70;59.40;;;;;;5038259;28;20048;-77
2021/05/10 06:34:05;;;;;;;4.50;1.95;;;19.60;59.10;;;;;;5060246;28;20084;-77
2021/05/10 06:36:32;;;;;;;6.78;2.15;;;19.80;59.20;;;;;;5042581;28;20027;-76
2021/05/10 06:38:57;;;;;;;3.10;1.80;;;19.50;59.00;;;;;;5024726;28;20344;-76
2021/05/10 06:41:23;;;;;;;2.65;1.60;;;19.50;59.50;;;;;;5020394;28;20025;-76
2021/05/10 06:43:49;;;;;;;3.70;1.52;;;20.00;59.00;;;;;;5040070;28;20292;-76
2021/05/10 06:46:14;;;;;;;2.53;1.80;;;20.20;58.30;;;;;;5036204;28;20471;-76
2021/05/10 06:48:40;;;;;;;2.47;1.73;;;20.30;57.40;;;;;;5022173;28;20017;-76
2021/05/10 06:51:05;;;;;;;3.35;2.17;;;20.10;57.90;;;;;;5021342;28;20421;-75
2021/05/10 06:53:31;;;;;;;3.10;1.80;;;20.20;57.10;;;;;;5036769;28;20098;-75
2021/05/10 06:55:57;;;;;;;3.17;1.92;;;19.80;58.20;;;;;;5021432;28;20017;-76
2021/05/10 06:58:23;;;;;;;2.85;1.67;;;20.20;57.90;;;;;;5030798;28;20028;-76
2021/05/10 07:00:51;;;;;;;1.63;1.20;;;20.50;57.50;;;;;;5036104;28;20024;-76
2021/05/10 07:03:17;;;;;;;4.50;2.00;;;21.00;56.60;;;;;;5000857;28;20240;-76
2021/05/10 07:05:46;;;;;;;3.53;1.80;;;20.70;55.70;;;;;;5033007;28;20044;-76
2021/05/10 07:08:13;;;;;;;3.20;1.90;;;20.30;57.00;;;;;;5016313;28;20037;-76
2021/05/10 07:10:38;;;;;;;4.10;1.80;;;20.20;57.20;;;;;;5019431;28;20269;-76
2021/05/10 07:13:04;;;;;;;3.03;1.75;;;20.20;57.10;;;;;;5039799;28;20017;-78
2021/05/10 07:15:31;;;;;;;4.97;2.10;;;20.40;56.90;;;;;;5016124;28;21341;-83
2021/05/10 07:18:02;;;;;;;3.55;1.73;;;20.20;56.90;;;;;;5031191;28;20021;-81
2021/05/10 07:20:28;;;;;;;7.55;2.20;;;19.80;57.90;;;;;;5049570;28;20984;-81
2021/05/10 07:22:55;;;;;;;4.28;2.10;;;20.00;57.90;;;;;;5015909;28;20094;-81
2021/05/10 07:25:21;;;;;;;5.22;1.80;;;20.00;57.60;;;;;;5028227;28;20024;-82
2021/05/10 07:27:47;;;;;;;3.50;1.80;;;19.80;58.10;;;;;;4994222;28;20020;-79
2021/05/10 07:30:13;;;;;;;4.63;1.90;;;20.10;57.30;;;;;;4992205;28;20037;-82
2021/05/10 07:32:39;;;;;;;5.47;2.08;;;20.30;57.10;;;;;;4992326;28;20194;-79
2021/05/10 07:35:04;;;;;;;6.07;2.20;;;20.10;57.20;;;;;;4965690;28;20182;-79
2021/05/10 07:37:31;;;;;;;3.47;2.00;;;20.00;57.50;;;;;;4946506;28;20057;-81
2021/05/10 07:39:56;;;;;;;3.25;1.92;;;20.10;57.50;;;;;;4971864;28;20348;-79
2021/05/10 07:42:22;;;;;;;5.85;2.05;;;20.30;57.30;;;;;;4985735;28;20040;-80
2021/05/10 07:44:48;;;;;;;3.13;1.92;;;20.10;57.20;;;;;;4982963;28;20340;-79
2021/05/10 07:47:13;;;;;;;4.15;1.90;;;20.00;57.60;;;;;;4979691;28;20424;-80
2021/05/10 07:49:39;;;;;;;4.93;1.70;;;19.80;57.90;;;;;;4964511;28;20031;-80
2021/05/10 07:52:05;;;;;;;3.28;2.20;;;20.00;58.00;;;;;;4987239;28;20715;-79
2021/05/10 07:54:30;;;;;;;2.60;1.65;;;20.00;57.60;;;;;;4978811;28;20040;-81
2021/05/10 07:56:56;;;;;;;5.93;1.80;;;20.00;57.90;;;;;;4982197;28;20032;-81
2021/05/10 07:59:22;;;;;;;5.20;1.90;;;20.30;57.50;;;;;;4977236;28;20322;-79
2021/05/10 08:01:50;;;;;;;4.35;2.13;;;20.60;56.80;;;;;;4964358;28;20044;-80
2021/05/10 08:04:16;;;;;;;2.97;1.67;;;21.10;55.90;;;;;;4985226;28;20045;-79
2021/05/10 08:06:42;;;;;;;3.10;1.90;;;21.90;54.50;;;;;;4976151;28;20112;-79
2021/05/10 08:09:08;;;;;;;3.38;1.73;;;21.80;54.60;;;;;;4977781;28;20022;-82
2021/05/10 08:11:36;;;;;;;3.17;1.65;;;22.00;54.00;;;;;;4975553;28;20064;-79
2021/05/10 08:14:01;;;;;;;2.53;1.73;;;21.80;53.70;;;;;;4975648;28;20602;-80
2021/05/10 08:16:27;;;;;;;5.03;1.98;;;22.00;53.90;;;;;;4946790;28;20013;-79
2021/05/10 08:18:53;;;;;;;3.75;1.55;;;22.10;53.90;;;;;;4953424;28;20568;-80
2021/05/10 08:21:19;;;;;;;3.70;1.80;;;22.00;54.20;;;;;;4975485;28;20131;-81
2021/05/10 08:23:45;;;;;;;2.53;1.85;;;21.70;54.70;;;;;;4968734;28;20056;-81
2021/05/10 08:26:10;;;;;;;3.97;1.70;;;21.30;55.70;;;;;;4977331;28;20086;-81
2021/05/10 08:28:36;;;;;;;3.97;1.90;;;21.00;56.40;;;;;;4951371;28;20017;-79
2021/05/10 08:31:02;;;;;;;3.47;1.65;;;20.70;57.40;;;;;;4959056;28;20049;-84
2021/05/10 08:33:30;;;;;;;2.25;1.38;;;20.70;57.70;;;;;;4961181;28;20860;-80
2021/05/10 08:35:55;;;;;;;6.72;1.70;;;20.50;58.10;;;;;;4963462;28;20028;-80
2021/05/10 08:38:21;;;;;;;3.97;1.88;;;20.40;58.40;;;;;;4981856;28;20171;-79
2021/05/10 08:40:50;;;;;;;3.83;1.90;;;20.50;58.60;;;;;;4966116;28;20838;-81
2021/05/10 08:43:21;;;;;;;3.08;1.90;;;20.80;58.10;;;;;;4969607;28;20182;-79
2021/05/10 08:45:53;;;;;;;5.00;2.00;;;20.90;57.70;;;;;;4917152;28;20317;-78
2021/05/10 08:48:19;;;;;;;2.15;1.65;;;20.90;57.60;;;;;;4933718;28;20333;-81
2021/05/10 08:50:45;;;;;;;4.20;2.38;;;20.80;57.70;;;;;;4947423;28;20395;-80
2021/05/10 08:53:14;;;;;;;4.97;2.30;;;20.40;58.10;;;;;;4919955;28;20052;-79
2021/05/10 08:55:40;;;;;;;5.03;2.10;;;20.30;59.20;;;;;;4931921;28;20057;-80
2021/05/10 08:58:08;;;;;;;5.35;2.72;;;20.10;59.10;;;;;;4936194;28;20224;-78
2021/05/10 09:00:48;;;;;;;7.10;3.08;;;20.00;59.90;;;;;;4961528;28;20483;-81
2021/05/10 09:03:14;;;;;;;3.95;2.10;;;19.90;60.10;;;;;;4948171;28;20336;-79
2021/05/10 09:05:50;;;;;;;11.05;4.03;;;20.00;59.80;;;;;;4939681;28;20384;-79
2021/05/10 09:08:16;;;;;;;7.50;3.03;;;19.70;60.30;;;;;;4930966;28;20160;-80
2021/05/10 09:11:02;;;;;;;6.80;3.00;;;19.50;60.70;;;;;;4965268;28;20017;-79
2021/05/10 09:13:39;;;;;;;6.82;3.60;;;19.10;61.90;;;;;;4969932;28;20290;-80
2021/05/10 09:16:06;;;;;;;8.18;2.75;;;19.00;63.10;;;;;;4965698;28;20223;-80
2021/05/10 09:18:32;;;;;;;4.20;2.35;;;19.20;62.60;;;;;;4973806;28;20626;-79
2021/05/10 09:21:17;;;;;;;3.88;2.80;;;19.50;61.70;;;;;;4984763;28;20028;-80
2021/05/10 09:23:44;;;;;;;5.20;2.70;;;19.40;61.40;;;;;;5000832;28;20245;-79
2021/05/10 09:26:11;;;;;;;4.18;2.58;;;19.30;61.90;;;;;;4997997;28;20041;-79
2021/05/10 09:28:39;;;;;;;4.88;2.75;;;19.40;61.60;;;;;;4983596;28;20013;-80
2021/05/10 09:31:07;;;;;;;5.95;2.38;;;19.30;61.70;;;;;;4992792;28;20037;-80
2021/05/10 09:33:33;;;;;;;8.10;3.50;;;19.30;62.30;;;;;;4980490;28;20088;-81
2021/05/10 09:36:02;;;;;;;7.50;2.97;;;19.30;62.10;;;;;;4962085;28;20243;-80
2021/05/10 09:38:29;;;;;;;6.90;2.90;;;19.30;62.30;;;;;;4981397;28;20013;-85
2021/05/10 09:40:59;;;;;;;4.65;2.28;;;19.20;62.40;;;;;;4981693;28;20211;-83
2021/05/10 09:43:31;;;;;;;3.33;2.00;;;19.20;62.80;;;;;;4963916;28;20103;-86
2021/05/10 09:45:59;;;;;;;5.38;2.50;;;19.30;62.90;;;;;;4972410;28;20324;-83
2021/05/10 09:48:27;;;;;;;4.18;2.47;;;19.50;62.50;;;;;;4943152;28;20013;-85
2021/05/10 09:51:01;;;;;;;2.17;1.60;;;19.50;62.40;;;;;;4975109;28;20032;-87
2021/05/10 09:53:48;;;;;;;4.05;1.90;;;19.50;62.60;;;;;;4968090;28;20024;-79
2021/05/10 09:56:17;;;;;;;5.00;2.40;;;19.60;62.70;;;;;;4971383;28;20403;-79
2021/05/10 09:58:45;;;;;;;4.97;1.83;;;19.50;64.00;;;;;;4975854;28;20041;-78
2021/05/10 10:01:12;;;;;;;10.55;4.45;;;19.60;63.70;;;;;;4977210;28;20371;-79
2021/05/10 10:03:44;;;;;;;21.02;11.25;;;19.60;63.70;;;;;;4966124;28;20338;-79
2021/05/10 10:06:13;;;;;;;10.07;4.85;;;19.30;62.80;;;;;;4977817;28;20581;-79
2021/05/10 10:08:40;;;;;;;8.45;3.38;;;18.60;65.10;;;;;;4962018;28;20511;-79
2021/05/10 10:11:08;;;;;;;5.88;2.85;;;18.40;66.10;;;;;;4963927;28;20582;-79
2021/05/10 10:13:35;;;;;;;4.32;2.30;;;18.40;65.90;;;;;;4985884;28;20263;-79
2021/05/10 10:16:02;;;;;;;8.35;3.28;;;18.20;66.20;;;;;;4958397;28;20017;-81
2021/05/10 10:18:27;;;;;;;4.22;2.13;;;18.20;66.90;;;;;;4980373;28;20013;-79
2021/05/10 10:20:55;;;;;;;3.38;2.10;;;18.20;67.00;;;;;;4946534;28;20262;-79
2021/05/10 10:23:22;;;;;;;4.50;2.00;;;18.30;66.90;;;;;;4970867;28;20071;-80
2021/05/10 10:25:49;;;;;;;7.80;3.33;;;18.50;66.20;;;;;;4951830;28;20017;-80
2021/05/10 10:28:17;;;;;;;4.53;2.65;;;18.90;65.30;;;;;;4973269;28;21390;-84
2021/05/10 10:30:51;;;;;;;5.82;2.83;;;19.30;64.10;;;;;;4966806;28;20405;-81
2021/05/10 10:33:24;;;;;;;6.93;2.03;;;19.70;62.60;;;;;;4957722;28;20025;-84
2021/05/10 10:35:50;;;;;;;3.15;1.98;;;19.90;62.00;;;;;;4970899;28;20040;-81
2021/05/10 10:38:27;;;;;;;4.40;1.92;;;20.30;60.80;;;;;;4947779;28;20036;-77
2021/05/10 10:41:17;;;;;;;3.70;1.92;;;20.70;59.30;;;;;;4946844;28;20213;-84
2021/05/10 10:43:43;;;;;;;2.28;1.48;;;21.40;57.80;;;;;;4971141;28;20032;-81
2021/05/10 10:46:26;;;;;;;5.43;2.45;;;22.00;56.00;;;;;;4949307;28;20369;-83
2021/05/10 10:48:53;;;;;;;7.68;2.80;;;22.00;55.90;;;;;;4970568;28;20028;-84
2021/05/10 10:51:19;;;;;;;6.10;2.35;;;22.20;55.50;;;;;;4985215;28;20167;-80
2021/05/10 10:53:48;;;;;;;4.28;2.15;;;21.80;55.60;;;;;;4974661;28;20320;-81
2021/05/10 10:56:14;;;;;;;5.20;2.42;;;21.30;56.80;;;;;;4973456;28;20362;-80
2021/05/10 10:58:42;;;;;;;4.47;2.33;;;21.00;57.80;;;;;;4973450;28;20467;-83
2021/05/10 11:01:22;;;;;;;4.20;2.22;;;21.00;58.20;;;;;;4964456;28;20088;-82
2021/05/10 11:03:48;;;;;;;4.32;2.20;;;21.30;57.40;;;;;;4944960;28;20023;-84
2021/05/10 11:06:14;;;;;;;3.53;2.30;;;21.00;57.50;;;;;;4953374;28;20266;-80
2021/05/10 11:08:40;;;;;;;7.03;2.80;;;20.80;58.00;;;;;;4961484;28;20018;-80
2021/05/10 11:11:13;;;;;;;5.38;2.70;;;20.60;58.70;;;;;;4963706;28;20024;-83
2021/05/10 11:13:42;;;;;;;4.93;2.53;;;20.70;58.80;;;;;;4956606;28;20235;-81
2021/05/10 11:16:16;;;;;;;8.93;2.58;;;20.90;58.70;;;;;;4977101;28;20017;-84
2021/05/10 11:18:55;;;;;;;4.63;2.40;;;20.90;58.00;;;;;;4969718;28;21067;-82
2021/05/10 11:21:25;;;;;;;3.53;2.13;;;21.20;57.80;;;;;;4966370;28;20104;-81
2021/05/10 11:23:51;;;;;;;6.68;2.47;;;21.40;57.30;;;;;;4976024;28;20013;-80
2021/05/10 11:26:37;;;;;;;6.55;2.65;;;21.50;57.20;;;;;;4958659;28;20021;-82
2021/05/10 11:29:05;;;;;;;5.93;2.20;;;21.50;57.30;;;;;;4984225;28;20377;-82
2021/05/10 11:31:42;;;;;;;5.65;2.40;;;21.40;58.40;;;;;;4977064;28;20662;-82
2021/05/10 11:34:15;;;;;;;2.80;1.67;;;21.40;57.50;;;;;;4979290;28;20114;-82
2021/05/10 11:37:01;;;;;;;3.88;1.90;;;21.80;56.60;;;;;;4952321;28;20012;-82
2021/05/10 11:39:28;;;;;;;4.82;1.95;;;22.00;55.70;;;;;;4990431;28;20717;-82
2021/05/10 11:42:00;;;;;;;4.30;2.15;;;22.10;55.70;;;;;;4962128;28;20021;-81
2021/05/10 11:44:34;;;;;;;4.35;2.30;;;21.90;56.00;;;;;;4970688;28;20020;-82
2021/05/10 11:47:00;;;;;;;4.85;2.50;;;21.90;56.40;;;;;;4977593;28;20017;-80
2021/05/10 11:49:31;;;;;;;7.15;3.45;;;21.70;56.20;;;;;;4952205;28;20025;-81
2021/05/10 11:52:01;;;;;;;5.38;2.70;;;21.60;56.20;;;;;;4986625;28;20949;-81
2021/05/10 11:54:28;;;;;;;5.68;2.60;;;21.60;55.90;;;;;;4983150;28;20036;-82
2021/05/10 11:56:56;;;;;;;6.10;2.72;;;21.90;54.90;;;;;;4990897;28;20024;-82
2021/05/10 12:02:10;;;;;;;5.60;2.33;;;22.10;54.60;;;;;;4954587;28;20029;-80
2021/05/10 12:04:43;;;;;;;4.00;1.70;;;22.00;54.50;;;;;;4961768;28;20192;-81
2021/05/10 12:07:09;;;;;;;5.38;2.70;;;22.00;55.20;;;;;;4952702;28;20557;-81
2021/05/10 12:09:39;;;;;;;7.00;2.22;;;22.00;54.90;;;;;;4978875;28;20147;-82
2021/05/10 12:12:17;;;;;;;3.25;1.90;;;21.90;54.80;;;;;;4974344;28;20013;-81
2021/05/10 12:14:53;;;;;;;3.05;1.98;;;22.20;54.50;;;;;;4982823;28;20089;-82
2021/05/10 12:17:20;;;;;;;4.93;1.80;;;22.30;54.70;;;;;;4962517;28;20013;-81
2021/05/10 12:19:49;;;;;;;4.90;2.40;;;22.50;54.10;;;;;;4963973;28;20021;-84
2021/05/10 12:22:16;;;;;;;4.68;2.83;;;22.60;53.50;;;;;;4978709;28;20040;-82
2021/05/10 12:24:57;;;;;;;3.28;1.90;;;22.40;53.80;;;;;;4979176;28;20512;-81
2021/05/10 12:27:24;;;;;;;5.28;2.42;;;21.90;54.90;;;;;;4992253;28;20371;-83
2021/05/10 12:29:50;;;;;;;3.47;2.17;;;21.80;55.30;;;;;;4957113;28;20118;-82
2021/05/10 12:32:16;;;;;;;8.50;5.00;;;21.50;55.80;;;;;;4950682;28;20310;-83
2021/05/10 12:34:42;;;;;;;5.95;3.58;;;21.50;56.00;;;;;;4942912;28;20256;-82
2021/05/10 12:37:07;;;;;;;5.53;2.95;;;21.60;55.80;;;;;;4935248;28;21081;-82
2021/05/10 12:39:33;;;;;;;4.18;2.30;;;21.90;54.90;;;;;;4972432;28;20605;-83
2021/05/10 12:42:18;;;;;;;7.18;3.05;;;21.90;54.70;;;;;;4976942;28;20289;-83
2021/05/10 12:44:57;;;;;;;4.00;2.17;;;22.00;54.30;;;;;;4966991;28;20590;-83
2021/05/10 12:47:45;;;;;;;7.63;4.00;;;22.10;54.10;;;;;;4977960;28;20624;-83
2021/05/10 12:50:32;;;;;;;16.08;8.43;;;22.30;53.70;;;;;;4968613;28;20048;-82
2021/05/10 12:53:03;;;;;;;7.28;3.08;;;22.50;53.30;;;;;;4994330;28;20131;-83
2021/05/10 12:55:28;;;;;;;4.65;2.08;;;22.50;52.90;;;;;;4977831;28;20060;-83